sensor_id;sensor_type;location;lat;lon;timestamp;P1;durP1;ratioP1;P2;durP2;ratioP2
803;SDS011;25687;49.976;8.240;2023-07-13T00:02:04;3.33;;;1.60;;
803;SDS011;25687;49.976;8.240;2023-07-13T00:04:29;2.80;;;1.47;;
803;SDS011;25687;49.976;8.240;2023-07-13T00:06:54;2.77;;;1.40;;
803;SDS011;25687;49.976;8.240;2023-07-13T00:09:20;2.27;;;1.43;;
803;SDS011;25687;49.976;8.240;2023-07-13T00:11:50;2.63;;;1.73;;
803;SDS011;25687;49.976;8.240;2023-07-13T00:14:17;4.10;;;2.10;;
803;SDS011;25687;49.976;8.240;2023-07-13T00:16:42;2.80;;;1.60;;
803;SDS011;25687;49.976;8.240;2023-07-13T00:19:08;2.90;;;1.77;;
803;SDS011;25687;49.976;8.240;2023-07-13T00:21:35;2.67;;;1.60;;
803;SDS011;25687;49.976;8.240;2023-07-13T00:24:00;3.47;;;1.70;;
803;SDS011;25687;49.976;8.240;2023-07-13T00:26:26;2.70;;;1.50;;
803;SDS011;25687;49.976;8.240;2023-07-13T00:28:51;2.67;;;1.50;;
803;SDS011;25687;49.976;8.240;2023-07-13T00:31:17;7.40;;;1.60;;
803;SDS011;25687;49.976;8.240;2023-07-13T00:33:42;4.53;;;1.70;;
803;SDS011;25687;49.976;8.240;2023-07-13T00:36:09;3.90;;;1.53;;
803;SDS011;25687;49.976;8.240;2023-07-13T00:38:35;1.97;;;1.70;;
803;SDS011;25687;49.976;8.240;2023-07-13T00:41:01;6.20;;;1.70;;
803;SDS011;25687;49.976;8.240;2023-07-13T00:43:28;6.50;;;1.60;;
803;SDS011;25687;49.976;8.240;2023-07-13T00:48:24;3.63;;;1.60;;
803;SDS011;25687;49.976;8.240;2023-07-13T00:50:53;2.13;;;1.43;;
803;SDS011;25687;49.976;8.240;2023-07-13T00:53:21;5.10;;;2.27;;
803;SDS011;25687;49.976;8.240;2023-07-13T00:55:47;4.10;;;1.60;;
803;SDS011;25687;49.976;8.240;2023-07-13T00:58:15;2.63;;;1.53;;
803;SDS011;25687;49.976;8.240;2023-07-13T01:00:40;3.67;;;1.37;;
803;SDS011;25687;49.976;8.240;2023-07-13T01:03:06;4.40;;;1.77;;
803;SDS011;25687;49.976;8.240;2023-07-13T01:05:32;2.60;;;1.37;;
803;SDS011;25687;49.976;8.240;2023-07-13T01:07:59;4.60;;;1.77;;
803;SDS011;25687;49.976;8.240;2023-07-13T01:10:26;4.33;;;1.80;;
803;SDS011;25687;49.976;8.240;2023-07-13T01:12:52;3.90;;;1.63;;
803;SDS011;25687;49.976;8.240;2023-07-13T01:15:35;2.83;;;1.73;;
803;SDS011;25687;49.976;8.240;2023-07-13T01:18:10;3.50;;;1.80;;
803;SDS011;25687;49.976;8.240;2023-07-13T01:20:38;3.37;;;1.57;;
803;SDS011;25687;49.976;8.240;2023-07-13T01:23:08;3.30;;;1.73;;
803;SDS011;25687;49.976;8.240;2023-07-13T01:25:35;3.30;;;1.80;;
803;SDS011;25687;49.976;8.240;2023-07-13T01:28:03;4.77;;;1.60;;
803;SDS011;25687;49.976;8.240;2023-07-13T01:30:30;2.37;;;1.70;;
803;SDS011;25687;49.976;8.240;2023-07-13T01:32:56;6.10;;;2.33;;
803;SDS011;25687;49.976;8.240;2023-07-13T01:35:22;5.53;;;1.63;;
803;SDS011;25687;49.976;8.240;2023-07-13T01:37:47;2.77;;;1.97;;
803;SDS011;25687;49.976;8.240;2023-07-13T01:40:12;3.70;;;1.60;;
803;SDS011;25687;49.976;8.240;2023-07-13T01:42:38;4.33;;;1.60;;
803;SDS011;25687;49.976;8.240;2023-07-13T01:45:03;3.70;;;1.50;;
803;SDS011;25687;49.976;8.240;2023-07-13T01:47:29;3.00;;;1.70;;
803;SDS011;25687;49.976;8.240;2023-07-13T01:49:55;2.43;;;1.43;;
803;SDS011;25687;49.976;8.240;2023-07-13T01:52:21;2.27;;;2.03;;
803;SDS011;25687;49.976;8.240;2023-07-13T01:54:46;2.00;;;1.23;;
803;SDS011;25687;49.976;8.240;2023-07-13T01:57:12;3.43;;;1.50;;
803;SDS011;25687;49.976;8.240;2023-07-13T01:59:37;3.03;;;1.57;;
803;SDS011;25687;49.976;8.240;2023-07-13T02:02:02;3.20;;;1.40;;
803;SDS011;25687;49.976;8.240;2023-07-13T02:04:28;1.77;;;1.63;;
803;SDS011;25687;49.976;8.240;2023-07-13T02:06:53;2.83;;;1.47;;
803;SDS011;25687;49.976;8.240;2023-07-13T02:09:20;4.60;;;1.53;;
803;SDS011;25687;49.976;8.240;2023-07-13T02:11:45;2.27;;;1.13;;
803;SDS011;25687;49.976;8.240;2023-07-13T02:14:11;3.33;;;1.63;;
803;SDS011;25687;49.976;8.240;2023-07-13T02:16:36;3.93;;;1.63;;
803;SDS011;25687;49.976;8.240;2023-07-13T02:19:01;3.60;;;1.47;;
803;SDS011;25687;49.976;8.240;2023-07-13T02:21:27;2.60;;;1.50;;
803;SDS011;25687;49.976;8.240;2023-07-13T02:23:52;3.13;;;1.70;;
803;SDS011;25687;49.976;8.240;2023-07-13T02:26:18;3.20;;;1.60;;
803;SDS011;25687;49.976;8.240;2023-07-13T02:28:44;2.67;;;1.57;;
803;SDS011;25687;49.976;8.240;2023-07-13T02:31:10;2.87;;;1.63;;
803;SDS011;25687;49.976;8.240;2023-07-13T02:33:37;2.13;;;1.50;;
803;SDS011;25687;49.976;8.240;2023-07-13T02:36:02;3.20;;;1.40;;
803;SDS011;25687;49.976;8.240;2023-07-13T02:38:28;2.83;;;1.50;;
803;SDS011;25687;49.976;8.240;2023-07-13T02:40:54;2.47;;;1.70;;
803;SDS011;25687;49.976;8.240;2023-07-13T02:43:19;3.63;;;1.87;;
803;SDS011;25687;49.976;8.240;2023-07-13T02:45:45;2.53;;;1.40;;
803;SDS011;25687;49.976;8.240;2023-07-13T02:48:13;2.60;;;1.60;;
803;SDS011;25687;49.976;8.240;2023-07-13T02:50:39;4.30;;;2.00;;
803;SDS011;25687;49.976;8.240;2023-07-13T02:53:04;2.90;;;1.63;;
803;SDS011;25687;49.976;8.240;2023-07-13T02:55:29;3.67;;;1.33;;
803;SDS011;25687;49.976;8.240;2023-07-13T02:57:54;1.80;;;1.40;;
803;SDS011;25687;49.976;8.240;2023-07-13T03:00:20;2.70;;;1.83;;
803;SDS011;25687;49.976;8.240;2023-07-13T03:02:45;4.57;;;1.70;;
803;SDS011;25687;49.976;8.240;2023-07-13T03:05:10;1.90;;;1.70;;
803;SDS011;25687;49.976;8.240;2023-07-13T03:07:37;4.00;;;1.80;;
803;SDS011;25687;49.976;8.240;2023-07-13T03:10:03;4.77;;;1.80;;
803;SDS011;25687;49.976;8.240;2023-07-13T03:12:29;3.10;;;1.50;;
803;SDS011;25687;49.976;8.240;2023-07-13T03:14:54;5.60;;;1.73;;
803;SDS011;25687;49.976;8.240;2023-07-13T03:17:19;2.13;;;1.60;;
803;SDS011;25687;49.976;8.240;2023-07-13T03:19:45;3.87;;;1.40;;
803;SDS011;25687;49.976;8.240;2023-07-13T03:22:14;2.77;;;1.80;;
803;SDS011;25687;49.976;8.240;2023-07-13T03:24:39;3.73;;;1.50;;
803;SDS011;25687;49.976;8.240;2023-07-13T03:27:05;2.80;;;1.50;;
803;SDS011;25687;49.976;8.240;2023-07-13T03:29:30;6.30;;;1.93;;
803;SDS011;25687;49.976;8.240;2023-07-13T03:31:56;3.37;;;1.30;;
803;SDS011;25687;49.976;8.240;2023-07-13T03:34:21;3.40;;;1.60;;
803;SDS011;25687;49.976;8.240;2023-07-13T03:36:46;2.53;;;1.47;;
803;SDS011;25687;49.976;8.240;2023-07-13T03:39:12;3.63;;;1.60;;
803;SDS011;25687;49.976;8.240;2023-07-13T03:41:37;2.63;;;1.47;;
803;SDS011;25687;49.976;8.240;2023-07-13T03:44:02;5.57;;;1.63;;
803;SDS011;25687;49.976;8.240;2023-07-13T03:46:28;2.07;;;1.37;;
803;SDS011;25687;49.976;8.240;2023-07-13T03:48:53;5.67;;;1.83;;
803;SDS011;25687;49.976;8.240;2023-07-13T03:51:19;3.90;;;1.50;;
803;SDS011;25687;49.976;8.240;2023-07-13T03:53:44;3.20;;;1.50;;
803;SDS011;25687;49.976;8.240;2023-07-13T03:56:11;4.13;;;1.47;;
803;SDS011;25687;49.976;8.240;2023-07-13T03:58:39;3.23;;;1.40;;
803;SDS011;25687;49.976;8.240;2023-07-13T04:01:06;2.53;;;1.50;;
803;SDS011;25687;49.976;8.240;2023-07-13T04:03:33;3.13;;;1.60;;
803;SDS011;25687;49.976;8.240;2023-07-13T04:05:59;3.03;;;1.60;;
803;SDS011;25687;49.976;8.240;2023-07-13T04:08:27;2.10;;;1.40;;
803;SDS011;25687;49.976;8.240;2023-07-13T04:10:53;3.33;;;1.70;;
803;SDS011;25687;49.976;8.240;2023-07-13T04:13:19;4.00;;;1.57;;
803;SDS011;25687;49.976;8.240;2023-07-13T04:15:44;3.73;;;1.67;;
803;SDS011;25687;49.976;8.240;2023-07-13T04:18:10;3.93;;;1.50;;
803;SDS011;25687;49.976;8.240;2023-07-13T04:20:35;4.17;;;1.73;;
803;SDS011;25687;49.976;8.240;2023-07-13T04:23:00;3.27;;;1.53;;
803;SDS011;25687;49.976;8.240;2023-07-13T04:25:26;4.40;;;1.53;;
803;SDS011;25687;49.976;8.240;2023-07-13T04:27:52;3.93;;;1.63;;
803;SDS011;25687;49.976;8.240;2023-07-13T04:30:18;8.90;;;2.03;;
803;SDS011;25687;49.976;8.240;2023-07-13T04:32:44;3.80;;;1.60;;
803;SDS011;25687;49.976;8.240;2023-07-13T04:35:09;4.53;;;2.10;;
803;SDS011;25687;49.976;8.240;2023-07-13T04:37:35;7.03;;;1.70;;
803;SDS011;25687;49.976;8.240;2023-07-13T04:40:00;4.13;;;1.33;;
803;SDS011;25687;49.976;8.240;2023-07-13T04:42:26;3.07;;;1.50;;
803;SDS011;25687;49.976;8.240;2023-07-13T04:44:51;3.73;;;1.40;;
803;SDS011;25687;49.976;8.240;2023-07-13T04:47:17;6.30;;;1.50;;
803;SDS011;25687;49.976;8.240;2023-07-13T04:49:43;1.30;;;1.07;;
803;SDS011;25687;49.976;8.240;2023-07-13T04:52:09;2.83;;;1.40;;
803;SDS011;25687;49.976;8.240;2023-07-13T04:54:35;3.03;;;1.77;;
803;SDS011;25687;49.976;8.240;2023-07-13T04:57:02;5.13;;;1.80;;
803;SDS011;25687;49.976;8.240;2023-07-13T04:59:29;2.23;;;1.30;;
803;SDS011;25687;49.976;8.240;2023-07-13T05:01:54;2.40;;;1.50;;
803;SDS011;25687;49.976;8.240;2023-07-13T05:04:20;3.33;;;1.10;;
803;SDS011;25687;49.976;8.240;2023-07-13T05:06:45;4.60;;;1.67;;
803;SDS011;25687;49.976;8.240;2023-07-13T05:09:10;2.57;;;1.47;;
803;SDS011;25687;49.976;8.240;2023-07-13T05:11:37;5.30;;;1.40;;
803;SDS011;25687;49.976;8.240;2023-07-13T05:14:02;4.07;;;1.63;;
803;SDS011;25687;49.976;8.240;2023-07-13T05:16:28;4.33;;;1.50;;
803;SDS011;25687;49.976;8.240;2023-07-13T05:18:53;5.07;;;1.20;;
803;SDS011;25687;49.976;8.240;2023-07-13T05:21:19;2.23;;;1.30;;
803;SDS011;25687;49.976;8.240;2023-07-13T05:23:44;4.70;;;1.40;;
803;SDS011;25687;49.976;8.240;2023-07-13T05:26:10;2.83;;;1.40;;
803;SDS011;25687;49.976;8.240;2023-07-13T05:28:36;3.57;;;1.57;;
803;SDS011;25687;49.976;8.240;2023-07-13T05:31:02;5.03;;;1.53;;
803;SDS011;25687;49.976;8.240;2023-07-13T05:33:27;3.37;;;1.20;;
803;SDS011;25687;49.976;8.240;2023-07-13T05:35:52;3.90;;;1.27;;
803;SDS011;25687;49.976;8.240;2023-07-13T05:38:18;4.57;;;1.47;;
803;SDS011;25687;49.976;8.240;2023-07-13T05:40:44;5.73;;;1.50;;
803;SDS011;25687;49.976;8.240;2023-07-13T05:43:10;2.80;;;1.23;;
803;SDS011;25687;49.976;8.240;2023-07-13T05:45:35;4.33;;;1.60;;
803;SDS011;25687;49.976;8.240;2023-07-13T05:48:01;5.57;;;1.17;;
803;SDS011;25687;49.976;8.240;2023-07-13T05:50:26;5.67;;;1.47;;
803;SDS011;25687;49.976;8.240;2023-07-13T05:52:52;3.60;;;1.43;;
803;SDS011;25687;49.976;8.240;2023-07-13T05:55:17;5.40;;;1.70;;
803;SDS011;25687;49.976;8.240;2023-07-13T05:57:43;2.33;;;1.33;;
803;SDS011;25687;49.976;8.240;2023-07-13T06:00:08;3.27;;;1.43;;
803;SDS011;25687;49.976;8.240;2023-07-13T06:02:35;3.87;;;1.37;;
803;SDS011;25687;49.976;8.240;2023-07-13T06:05:00;1.53;;;1.03;;
803;SDS011;25687;49.976;8.240;2023-07-13T06:07:25;1.87;;;1.30;;
803;SDS011;25687;49.976;8.240;2023-07-13T06:09:51;2.20;;;1.30;;
803;SDS011;25687;49.976;8.240;2023-07-13T06:12:16;4.20;;;1.30;;
803;SDS011;25687;49.976;8.240;2023-07-13T06:14:41;4.73;;;1.03;;
803;SDS011;25687;49.976;8.240;2023-07-13T06:17:07;4.60;;;1.37;;
803;SDS011;25687;49.976;8.240;2023-07-13T06:19:32;2.57;;;1.00;;
803;SDS011;25687;49.976;8.240;2023-07-13T06:21:58;2.60;;;1.07;;
803;SDS011;25687;49.976;8.240;2023-07-13T06:24:24;2.83;;;1.40;;
803;SDS011;25687;49.976;8.240;2023-07-13T06:26:50;5.37;;;1.17;;
803;SDS011;25687;49.976;8.240;2023-07-13T06:29:15;1.40;;;1.10;;
803;SDS011;25687;49.976;8.240;2023-07-13T06:31:40;1.20;;;0.80;;
803;SDS011;25687;49.976;8.240;2023-07-13T06:34:05;5.17;;;1.30;;
803;SDS011;25687;49.976;8.240;2023-07-13T06:36:31;3.93;;;1.30;;
803;SDS011;25687;49.976;8.240;2023-07-13T06:38:56;3.40;;;1.27;;
803;SDS011;25687;49.976;8.240;2023-07-13T06:41:21;2.35;;;1.00;;
803;SDS011;25687;49.976;8.240;2023-07-13T06:43:47;4.00;;;1.05;;
803;SDS011;25687;49.976;8.240;2023-07-13T06:46:12;2.72;;;1.10;;
803;SDS011;25687;49.976;8.240;2023-07-13T06:48:38;2.35;;;0.80;;
803;SDS011;25687;49.976;8.240;2023-07-13T06:51:03;1.73;;;0.93;;
803;SDS011;25687;49.976;8.240;2023-07-13T06:53:28;2.67;;;1.08;;
803;SDS011;25687;49.976;8.240;2023-07-13T06:55:54;2.83;;;1.02;;
803;SDS011;25687;49.976;8.240;2023-07-13T06:58:19;6.40;;;1.00;;
803;SDS011;25687;49.976;8.240;2023-07-13T07:00:45;3.35;;;1.02;;
803;SDS011;25687;49.976;8.240;2023-07-13T07:03:11;2.83;;;1.27;;
803;SDS011;25687;49.976;8.240;2023-07-13T07:05:36;2.05;;;1.08;;
803;SDS011;25687;49.976;8.240;2023-07-13T07:08:02;2.95;;;1.27;;
803;SDS011;25687;49.976;8.240;2023-07-13T07:10:28;7.70;;;1.08;;
803;SDS011;25687;49.976;8.240;2023-07-13T07:12:55;3.05;;;1.00;;
803;SDS011;25687;49.976;8.240;2023-07-13T07:15:20;3.25;;;1.30;;
803;SDS011;25687;49.976;8.240;2023-07-13T07:17:45;5.88;;;1.25;;
803;SDS011;25687;49.976;8.240;2023-07-13T07:20:11;3.00;;;1.52;;
803;SDS011;25687;49.976;8.240;2023-07-13T07:22:37;2.45;;;1.23;;
803;SDS011;25687;49.976;8.240;2023-07-13T07:25:02;4.38;;;1.23;;
803;SDS011;25687;49.976;8.240;2023-07-13T07:27:27;1.70;;;0.80;;
803;SDS011;25687;49.976;8.240;2023-07-13T07:29:53;5.78;;;1.23;;
803;SDS011;25687;49.976;8.240;2023-07-13T07:32:19;6.18;;;1.15;;
803;SDS011;25687;49.976;8.240;2023-07-13T07:34:45;5.45;;;1.73;;
803;SDS011;25687;49.976;8.240;2023-07-13T07:37:10;4.00;;;1.20;;
803;SDS011;25687;49.976;8.240;2023-07-13T07:39:37;7.40;;;1.27;;
803;SDS011;25687;49.976;8.240;2023-07-13T07:42:03;2.13;;;0.80;;
803;SDS011;25687;49.976;8.240;2023-07-13T07:44:28;4.25;;;1.25;;
803;SDS011;25687;49.976;8.240;2023-07-13T07:46:55;3.42;;;0.98;;
803;SDS011;25687;49.976;8.240;2023-07-13T07:49:21;2.72;;;1.30;;
803;SDS011;25687;49.976;8.240;2023-07-13T07:51:46;3.28;;;1.00;;
803;SDS011;25687;49.976;8.240;2023-07-13T07:54:12;2.08;;;1.00;;
803;SDS011;25687;49.976;8.240;2023-07-13T07:56:37;2.60;;;1.20;;
803;SDS011;25687;49.976;8.240;2023-07-13T07:59:02;4.22;;;1.30;;
803;SDS011;25687;49.976;8.240;2023-07-13T08:01:27;2.45;;;1.10;;
803;SDS011;25687;49.976;8.240;2023-07-13T08:03:53;3.25;;;1.13;;
803;SDS011;25687;49.976;8.240;2023-07-13T08:06:18;2.75;;;1.02;;
803;SDS011;25687;49.976;8.240;2023-07-13T08:08:46;2.22;;;0.88;;
803;SDS011;25687;49.976;8.240;2023-07-13T08:11:12;1.65;;;1.10;;
803;SDS011;25687;49.976;8.240;2023-07-13T08:13:37;3.42;;;0.90;;
803;SDS011;25687;49.976;8.240;2023-07-13T08:16:06;1.75;;;1.05;;
803;SDS011;25687;49.976;8.240;2023-07-13T08:18:31;4.03;;;1.08;;
803;SDS011;25687;49.976;8.240;2023-07-13T08:20:57;4.57;;;0.98;;
803;SDS011;25687;49.976;8.240;2023-07-13T08:23:23;1.50;;;1.00;;
803;SDS011;25687;49.976;8.240;2023-07-13T08:25:50;4.88;;;1.70;;
803;SDS011;25687;49.976;8.240;2023-07-13T08:28:22;4.50;;;1.42;;
803;SDS011;25687;49.976;8.240;2023-07-13T08:30:48;2.55;;;0.93;;
803;SDS011;25687;49.976;8.240;2023-07-13T08:33:18;1.27;;;1.00;;
803;SDS011;25687;49.976;8.240;2023-07-13T08:35:48;2.60;;;0.90;;
803;SDS011;25687;49.976;8.240;2023-07-13T08:38:14;4.13;;;1.08;;
803;SDS011;25687;49.976;8.240;2023-07-13T08:40:39;3.00;;;0.90;;
803;SDS011;25687;49.976;8.240;2023-07-13T08:43:06;1.38;;;0.90;;
803;SDS011;25687;49.976;8.240;2023-07-13T08:45:44;3.60;;;0.98;;
803;SDS011;25687;49.976;8.240;2023-07-13T08:48:26;2.95;;;1.10;;
803;SDS011;25687;49.976;8.240;2023-07-13T08:51:02;5.55;;;1.52;;
803;SDS011;25687;49.976;8.240;2023-07-13T08:53:46;2.38;;;1.00;;
803;SDS011;25687;49.976;8.240;2023-07-13T08:56:18;2.33;;;0.90;;
803;SDS011;25687;49.976;8.240;2023-07-13T08:58:45;1.27;;;0.95;;
803;SDS011;25687;49.976;8.240;2023-07-13T09:01:24;1.67;;;0.85;;
803;SDS011;25687;49.976;8.240;2023-07-13T09:06:30;2.58;;;0.80;;
803;SDS011;25687;49.976;8.240;2023-07-13T09:09:06;3.75;;;0.98;;
803;SDS011;25687;49.976;8.240;2023-07-13T09:11:42;0.88;;;0.60;;
803;SDS011;25687;49.976;8.240;2023-07-13T09:16:56;3.85;;;0.90;;
803;SDS011;25687;49.976;8.240;2023-07-13T09:19:27;2.10;;;0.73;;
803;SDS011;25687;49.976;8.240;2023-07-13T09:21:55;2.60;;;1.00;;
803;SDS011;25687;49.976;8.240;2023-07-13T09:27:19;2.78;;;0.88;;
803;SDS011;25687;49.976;8.240;2023-07-13T09:30:07;3.90;;;1.05;;
803;SDS011;25687;49.976;8.240;2023-07-13T09:32:48;2.55;;;0.75;;
803;SDS011;25687;49.976;8.240;2023-07-13T09:35:19;6.28;;;1.25;;
803;SDS011;25687;49.976;8.240;2023-07-13T09:37:49;2.17;;;1.00;;
803;SDS011;25687;49.976;8.240;2023-07-13T09:40:33;3.60;;;1.00;;
803;SDS011;25687;49.976;8.240;2023-07-13T09:43:13;1.52;;;1.00;;
803;SDS011;25687;49.976;8.240;2023-07-13T09:45:40;1.58;;;1.00;;
803;SDS011;25687;49.976;8.240;2023-07-13T09:48:06;2.78;;;1.00;;
803;SDS011;25687;49.976;8.240;2023-07-13T09:50:35;3.08;;;1.05;;
803;SDS011;25687;49.976;8.240;2023-07-13T09:53:01;2.38;;;1.08;;
803;SDS011;25687;49.976;8.240;2023-07-13T09:57:55;3.22;;;1.30;;
803;SDS011;25687;49.976;8.240;2023-07-13T10:00:21;3.83;;;0.82;;
803;SDS011;25687;49.976;8.240;2023-07-13T10:03:00;1.25;;;0.85;;
803;SDS011;25687;49.976;8.240;2023-07-13T10:05:28;1.95;;;0.80;;
803;SDS011;25687;49.976;8.240;2023-07-13T10:08:03;3.85;;;0.90;;
803;SDS011;25687;49.976;8.240;2023-07-13T10:10:28;2.08;;;0.80;;
803;SDS011;25687;49.976;8.240;2023-07-13T10:12:53;2.20;;;0.90;;
803;SDS011;25687;49.976;8.240;2023-07-13T10:15:20;3.80;;;1.00;;
803;SDS011;25687;49.976;8.240;2023-07-13T10:17:49;2.53;;;0.80;;
803;SDS011;25687;49.976;8.240;2023-07-13T10:20:15;4.20;;;1.08;;
803;SDS011;25687;49.976;8.240;2023-07-13T10:25:20;1.50;;;0.80;;
803;SDS011;25687;49.976;8.240;2023-07-13T10:27:49;3.65;;;1.10;;
803;SDS011;25687;49.976;8.240;2023-07-13T10:30:19;1.40;;;0.85;;
803;SDS011;25687;49.976;8.240;2023-07-13T10:32:50;1.92;;;0.93;;
803;SDS011;25687;49.976;8.240;2023-07-13T10:35:18;3.65;;;1.20;;
803;SDS011;25687;49.976;8.240;2023-07-13T10:37:48;3.67;;;1.30;;
803;SDS011;25687;49.976;8.240;2023-07-13T10:40:22;1.17;;;0.80;;
803;SDS011;25687;49.976;8.240;2023-07-13T10:42:52;3.17;;;0.93;;
803;SDS011;25687;49.976;8.240;2023-07-13T10:45:22;5.28;;;1.38;;
803;SDS011;25687;49.976;8.240;2023-07-13T10:47:48;3.65;;;1.35;;
803;SDS011;25687;49.976;8.240;2023-07-13T10:50:19;2.45;;;1.00;;
803;SDS011;25687;49.976;8.240;2023-07-13T10:52:51;4.68;;;1.35;;
803;SDS011;25687;49.976;8.240;2023-07-13T11:00:47;3.08;;;1.10;;
803;SDS011;25687;49.976;8.240;2023-07-13T11:03:16;5.68;;;1.20;;
803;SDS011;25687;49.976;8.240;2023-07-13T11:05:43;1.52;;;1.13;;
803;SDS011;25687;49.976;8.240;2023-07-13T11:08:16;1.95;;;0.98;;
803;SDS011;25687;49.976;8.240;2023-07-13T11:10:53;1.73;;;1.20;;
803;SDS011;25687;49.976;8.240;2023-07-13T11:16:33;1.65;;;0.98;;
803;SDS011;25687;49.976;8.240;2023-07-13T11:24:51;2.53;;;1.10;;
803;SDS011;25687;49.976;8.240;2023-07-13T11:27:33;3.53;;;1.52;;
803;SDS011;25687;49.976;8.240;2023-07-13T11:32:35;4.78;;;1.70;;
803;SDS011;25687;49.976;8.240;2023-07-13T11:35:01;2.20;;;1.13;;
803;SDS011;25687;49.976;8.240;2023-07-13T11:37:26;3.17;;;1.17;;
803;SDS011;25687;49.976;8.240;2023-07-13T11:39:54;3.47;;;1.10;;
803;SDS011;25687;49.976;8.240;2023-07-13T11:42:20;3.22;;;1.00;;
803;SDS011;25687;49.976;8.240;2023-07-13T11:44:47;2.42;;;1.17;;
803;SDS011;25687;49.976;8.240;2023-07-13T11:47:18;1.77;;;1.02;;
803;SDS011;25687;49.976;8.240;2023-07-13T11:49:49;15.27;;;1.83;;
803;SDS011;25687;49.976;8.240;2023-07-13T11:52:18;4.63;;;1.20;;
803;SDS011;25687;49.976;8.240;2023-07-13T11:54:50;1.83;;;1.30;;
803;SDS011;25687;49.976;8.240;2023-07-13T11:59:48;1.88;;;1.13;;
803;SDS011;25687;49.976;8.240;2023-07-13T12:02:18;2.40;;;1.00;;
803;SDS011;25687;49.976;8.240;2023-07-13T12:04:53;2.40;;;0.77;;
803;SDS011;25687;49.976;8.240;2023-07-13T12:07:19;4.45;;;1.10;;
803;SDS011;25687;49.976;8.240;2023-07-13T12:09:44;4.68;;;1.60;;
803;SDS011;25687;49.976;8.240;2023-07-13T12:12:14;2.05;;;1.00;;
803;SDS011;25687;49.976;8.240;2023-07-13T12:14:42;3.20;;;1.30;;
803;SDS011;25687;49.976;8.240;2023-07-13T12:17:13;6.55;;;1.25;;
803;SDS011;25687;49.976;8.240;2023-07-13T12:19:43;3.63;;;1.13;;
803;SDS011;25687;49.976;8.240;2023-07-13T12:22:09;2.05;;;1.20;;
803;SDS011;25687;49.976;8.240;2023-07-13T12:24:37;2.83;;;0.85;;
803;SDS011;25687;49.976;8.240;2023-07-13T12:27:04;3.13;;;1.20;;
803;SDS011;25687;49.976;8.240;2023-07-13T12:29:31;3.28;;;1.13;;
803;SDS011;25687;49.976;8.240;2023-07-13T12:31:57;4.38;;;1.20;;
803;SDS011;25687;49.976;8.240;2023-07-13T12:34:24;1.95;;;1.08;;
803;SDS011;25687;49.976;8.240;2023-07-13T12:36:58;7.35;;;1.10;;
803;SDS011;25687;49.976;8.240;2023-07-13T12:39:36;2.88;;;1.08;;
803;SDS011;25687;49.976;8.240;2023-07-13T12:42:13;3.15;;;1.08;;
803;SDS011;25687;49.976;8.240;2023-07-13T12:47:54;2.22;;;1.20;;
803;SDS011;25687;49.976;8.240;2023-07-13T12:50:21;4.22;;;1.40;;
803;SDS011;25687;49.976;8.240;2023-07-13T12:52:52;4.57;;;1.30;;
803;SDS011;25687;49.976;8.240;2023-07-13T12:55:20;8.30;;;1.58;;
803;SDS011;25687;49.976;8.240;2023-07-13T13:00:33;17.23;;;2.72;;
803;SDS011;25687;49.976;8.240;2023-07-13T13:03:06;101.50;;;10.15;;
803;SDS011;25687;49.976;8.240;2023-07-13T13:05:42;15.40;;;1.80;;
803;SDS011;25687;49.976;8.240;2023-07-13T13:08:09;6.22;;;1.45;;
803;SDS011;25687;49.976;8.240;2023-07-13T13:10:37;19.58;;;2.47;;
803;SDS011;25687;49.976;8.240;2023-07-13T13:13:02;15.10;;;1.67;;
803;SDS011;25687;49.976;8.240;2023-07-13T13:15:28;3.78;;;1.27;;
803;SDS011;25687;49.976;8.240;2023-07-13T13:17:54;3.40;;;1.48;;
803;SDS011;25687;49.976;8.240;2023-07-13T13:20:21;3.47;;;1.45;;
803;SDS011;25687;49.976;8.240;2023-07-13T13:22:47;2.33;;;1.10;;
803;SDS011;25687;49.976;8.240;2023-07-13T13:25:13;3.88;;;0.90;;
803;SDS011;25687;49.976;8.240;2023-07-13T13:27:40;3.42;;;1.35;;
803;SDS011;25687;49.976;8.240;2023-07-13T13:30:13;5.75;;;1.40;;
803;SDS011;25687;49.976;8.240;2023-07-13T13:32:40;9.70;;;1.17;;
803;SDS011;25687;49.976;8.240;2023-07-13T13:35:16;3.67;;;1.10;;
803;SDS011;25687;49.976;8.240;2023-07-13T13:37:44;1.52;;;0.90;;
803;SDS011;25687;49.976;8.240;2023-07-13T13:42:46;2.78;;;0.98;;
803;SDS011;25687;49.976;8.240;2023-07-13T13:45:11;2.33;;;1.23;;
803;SDS011;25687;49.976;8.240;2023-07-13T13:47:41;3.08;;;1.35;;
803;SDS011;25687;49.976;8.240;2023-07-13T13:50:14;3.88;;;1.23;;
803;SDS011;25687;49.976;8.240;2023-07-13T13:52:40;5.13;;;1.20;;
803;SDS011;25687;49.976;8.240;2023-07-13T13:55:13;3.20;;;1.10;;
803;SDS011;25687;49.976;8.240;2023-07-13T13:57:47;7.90;;;1.63;;
803;SDS011;25687;49.976;8.240;2023-07-13T14:00:13;45.03;;;5.05;;
803;SDS011;25687;49.976;8.240;2023-07-13T14:02:42;16.92;;;2.95;;
803;SDS011;25687;49.976;8.240;2023-07-13T14:05:13;18.80;;;3.30;;
803;SDS011;25687;49.976;8.240;2023-07-13T14:07:40;45.83;;;4.82;;
803;SDS011;25687;49.976;8.240;2023-07-13T14:10:10;43.22;;;5.88;;
803;SDS011;25687;49.976;8.240;2023-07-13T14:12:38;38.17;;;4.80;;
803;SDS011;25687;49.976;8.240;2023-07-13T14:15:03;37.75;;;4.53;;
803;SDS011;25687;49.976;8.240;2023-07-13T14:17:29;60.35;;;7.60;;
803;SDS011;25687;49.976;8.240;2023-07-13T14:19:55;51.42;;;6.50;;
803;SDS011;25687;49.976;8.240;2023-07-13T14:22:23;90.57;;;8.45;;
803;SDS011;25687;49.976;8.240;2023-07-13T14:24:51;71.00;;;6.97;;
803;SDS011;25687;49.976;8.240;2023-07-13T14:27:19;25.53;;;3.40;;
803;SDS011;25687;49.976;8.240;2023-07-13T14:29:45;34.77;;;4.27;;
803;SDS011;25687;49.976;8.240;2023-07-13T14:32:11;40.53;;;5.07;;
803;SDS011;25687;49.976;8.240;2023-07-13T14:34:37;10.57;;;2.10;;
803;SDS011;25687;49.976;8.240;2023-07-13T14:37:02;6.30;;;1.40;;
803;SDS011;25687;49.976;8.240;2023-07-13T14:39:29;5.00;;;1.50;;
803;SDS011;25687;49.976;8.240;2023-07-13T14:41:55;12.13;;;2.27;;
803;SDS011;25687;49.976;8.240;2023-07-13T14:44:23;6.33;;;1.40;;
803;SDS011;25687;49.976;8.240;2023-07-13T14:46:50;6.93;;;1.70;;
803;SDS011;25687;49.976;8.240;2023-07-13T14:49:30;5.07;;;1.10;;
803;SDS011;25687;49.976;8.240;2023-07-13T14:51:58;3.17;;;1.40;;
803;SDS011;25687;49.976;8.240;2023-07-13T14:54:25;3.30;;;1.30;;
803;SDS011;25687;49.976;8.240;2023-07-13T14:56:51;3.53;;;1.35;;
803;SDS011;25687;49.976;8.240;2023-07-13T14:59:16;7.33;;;1.50;;
803;SDS011;25687;49.976;8.240;2023-07-13T15:01:44;6.82;;;1.23;;
803;SDS011;25687;49.976;8.240;2023-07-13T15:04:10;6.18;;;1.55;;
803;SDS011;25687;49.976;8.240;2023-07-13T15:06:54;2.17;;;1.10;;
803;SDS011;25687;49.976;8.240;2023-07-13T15:09:27;5.18;;;1.13;;
803;SDS011;25687;49.976;8.240;2023-07-13T15:11:54;5.45;;;1.27;;
803;SDS011;25687;49.976;8.240;2023-07-13T15:14:21;2.50;;;1.35;;
803;SDS011;25687;49.976;8.240;2023-07-13T15:16:47;3.92;;;1.20;;
803;SDS011;25687;49.976;8.240;2023-07-13T15:19:16;5.72;;;1.35;;
803;SDS011;25687;49.976;8.240;2023-07-13T15:21:42;2.67;;;1.10;;
803;SDS011;25687;49.976;8.240;2023-07-13T15:24:08;1.52;;;1.23;;
803;SDS011;25687;49.976;8.240;2023-07-13T15:26:35;7.43;;;1.30;;
803;SDS011;25687;49.976;8.240;2023-07-13T15:29:00;2.53;;;1.10;;
803;SDS011;25687;49.976;8.240;2023-07-13T15:31:26;5.35;;;1.40;;
803;SDS011;25687;49.976;8.240;2023-07-13T15:33:53;5.43;;;1.20;;
803;SDS011;25687;49.976;8.240;2023-07-13T15:36:21;4.05;;;1.20;;
803;SDS011;25687;49.976;8.240;2023-07-13T15:38:47;2.13;;;1.20;;
803;SDS011;25687;49.976;8.240;2023-07-13T15:41:22;1.73;;;1.20;;
803;SDS011;25687;49.976;8.240;2023-07-13T15:43:53;2.35;;;0.98;;
803;SDS011;25687;49.976;8.240;2023-07-13T15:46:21;2.67;;;1.13;;
803;SDS011;25687;49.976;8.240;2023-07-13T15:48:48;2.38;;;1.08;;
803;SDS011;25687;49.976;8.240;2023-07-13T15:51:19;3.42;;;1.20;;
803;SDS011;25687;49.976;8.240;2023-07-13T15:53:48;1.10;;;0.80;;
803;SDS011;25687;49.976;8.240;2023-07-13T15:58:44;5.60;;;1.52;;
803;SDS011;25687;49.976;8.240;2023-07-13T16:01:10;2.45;;;1.20;;
803;SDS011;25687;49.976;8.240;2023-07-13T16:03:35;5.35;;;1.20;;